sensor_id;sensor_type;location;lat;lon;timestamp;temperature;humidity
42085;DHT22;27746;52.228;20.890;2022-12-31T00:01:47;3.50;99.90
42085;DHT22;27746;52.228;20.890;2022-12-31T00:04:13;3.50;99.90
42085;DHT22;27746;52.228;20.890;2022-12-31T00:06:40;3.50;99.90
42085;DHT22;27746;52.228;20.890;2022-12-31T00:09:09;3.40;99.90
42085;DHT22;27746;52.228;20.890;2022-12-31T00:11:36;3.50;99.90
42085;DHT22;27746;52.228;20.890;2022-12-31T00:14:04;3.40;99.90
42085;DHT22;27746;52.228;20.890;2022-12-31T00:16:34;3.50;99.90
42085;DHT22;27746;52.228;20.890;2022-12-31T00:19:02;3.50;99.90
42085;DHT22;27746;52.228;20.890;2022-12-31T00:21:31;3.50;99.90
42085;DHT22;27746;52.228;20.890;2022-12-31T00:23:59;3.50;99.90
42085;DHT22;27746;52.228;20.890;2022-12-31T00:26:29;3.50;99.90
42085;DHT22;27746;52.228;20.890;2022-12-31T00:28:57;3.50;99.90
42085;DHT22;27746;52.228;20.890;2022-12-31T00:31:26;3.50;99.90
42085;DHT22;27746;52.228;20.890;2022-12-31T00:33:53;3.50;99.90
42085;DHT22;27746;52.228;20.890;2022-12-31T00:36:22;3.50;99.90
42085;DHT22;27746;52.228;20.890;2022-12-31T00:38:50;3.50;99.90
42085;DHT22;27746;52.228;20.890;2022-12-31T00:41:18;3.50;99.90
42085;DHT22;27746;52.228;20.890;2022-12-31T00:43:47;3.60;99.90
42085;DHT22;27746;52.228;20.890;2022-12-31T00:46:15;3.50;99.90
42085;DHT22;27746;52.228;20.890;2022-12-31T00:48:42;3.50;99.90
42085;DHT22;27746;52.228;20.890;2022-12-31T00:51:11;3.50;99.90
42085;DHT22;27746;52.228;20.890;2022-12-31T00:53:38;3.50;99.90
42085;DHT22;27746;52.228;20.890;2022-12-31T00:56:08;3.50;99.90
42085;DHT22;27746;52.228;20.890;2022-12-31T00:58:36;3.50;99.90
42085;DHT22;27746;52.228;20.890;2022-12-31T01:01:09;3.60;99.90
42085;DHT22;27746;52.228;20.890;2022-12-31T01:03:36;3.60;99.90
42085;DHT22;27746;52.228;20.890;2022-12-31T01:06:03;3.60;99.90
42085;DHT22;27746;52.228;20.890;2022-12-31T01:08:30;3.70;99.90
42085;DHT22;27746;52.228;20.890;2022-12-31T01:10:58;3.70;99.90
42085;DHT22;27746;52.228;20.890;2022-12-31T01:13:42;3.60;99.90
42085;DHT22;27746;52.228;20.890;2022-12-31T01:16:12;3.70;99.90
42085;DHT22;27746;52.228;20.890;2022-12-31T01:18:39;3.60;99.90
42085;DHT22;27746;52.228;20.890;2022-12-31T01:21:09;3.70;99.90
42085;DHT22;27746;52.228;20.890;2022-12-31T01:23:36;3.70;99.90
42085;DHT22;27746;52.228;20.890;2022-12-31T01:26:05;3.70;99.90
42085;DHT22;27746;52.228;20.890;2022-12-31T01:28:33;3.70;99.90
42085;DHT22;27746;52.228;20.890;2022-12-31T01:31:03;3.80;99.90
42085;DHT22;27746;52.228;20.890;2022-12-31T01:33:31;3.80;99.90
42085;DHT22;27746;52.228;20.890;2022-12-31T01:36:02;3.80;99.90
42085;DHT22;27746;52.228;20.890;2022-12-31T01:38:29;3.80;99.90
42085;DHT22;27746;52.228;20.890;2022-12-31T01:40:56;3.90;99.90
42085;DHT22;27746;52.228;20.890;2022-12-31T01:46:06;3.90;99.90
42085;DHT22;27746;52.228;20.890;2022-12-31T01:48:35;3.90;99.90
42085;DHT22;27746;52.228;20.890;2022-12-31T01:51:04;3.90;99.90
42085;DHT22;27746;52.228;20.890;2022-12-31T01:53:31;3.90;99.90
42085;DHT22;27746;52.228;20.890;2022-12-31T01:55:59;3.90;99.90
42085;DHT22;27746;52.228;20.890;2022-12-31T01:58:28;3.90;99.90
42085;DHT22;27746;52.228;20.890;2022-12-31T02:00:56;4.00;99.90
42085;DHT22;27746;52.228;20.890;2022-12-31T02:03:25;4.00;99.90
42085;DHT22;27746;52.228;20.890;2022-12-31T02:05:58;4.00;99.90
42085;DHT22;27746;52.228;20.890;2022-12-31T02:08:28;4.10;99.90
42085;DHT22;27746;52.228;20.890;2022-12-31T02:10:55;4.10;99.90
42085;DHT22;27746;52.228;20.890;2022-12-31T02:13:22;4.10;99.90
42085;DHT22;27746;52.228;20.890;2022-12-31T02:15:56;4.10;99.90
42085;DHT22;27746;52.228;20.890;2022-12-31T02:18:29;4.20;99.90
42085;DHT22;27746;52.228;20.890;2022-12-31T02:21:19;4.20;99.90
42085;DHT22;27746;52.228;20.890;2022-12-31T02:24:19;4.20;99.90
42085;DHT22;27746;52.228;20.890;2022-12-31T02:26:56;4.30;99.90
42085;DHT22;27746;52.228;20.890;2022-12-31T02:32:30;4.30;99.90
42085;DHT22;27746;52.228;20.890;2022-12-31T02:35:06;4.30;99.90
42085;DHT22;27746;52.228;20.890;2022-12-31T02:37:34;4.30;99.90
42085;DHT22;27746;52.228;20.890;2022-12-31T02:40:04;4.30;99.90
42085;DHT22;27746;52.228;20.890;2022-12-31T02:42:32;4.30;99.90
42085;DHT22;27746;52.228;20.890;2022-12-31T02:44:58;4.40;99.90
42085;DHT22;27746;52.228;20.890;2022-12-31T02:47:36;4.40;99.90
42085;DHT22;27746;52.228;20.890;2022-12-31T02:50:16;4.50;99.90
42085;DHT22;27746;52.228;20.890;2022-12-31T02:52:53;4.50;99.90
42085;DHT22;27746;52.228;20.890;2022-12-31T02:55:27;4.60;99.90
42085;DHT22;27746;52.228;20.890;2022-12-31T02:58:02;4.70;99.90
42085;DHT22;27746;52.228;20.890;2022-12-31T03:00:35;4.70;99.90
42085;DHT22;27746;52.228;20.890;2022-12-31T03:03:26;4.80;99.90
42085;DHT22;27746;52.228;20.890;2022-12-31T03:05:53;4.80;99.90
42085;DHT22;27746;52.228;20.890;2022-12-31T03:08:21;4.80;99.90
42085;DHT22;27746;52.228;20.890;2022-12-31T03:10:48;4.90;99.90
42085;DHT22;27746;52.228;20.890;2022-12-31T03:13:15;4.90;99.90
42085;DHT22;27746;52.228;20.890;2022-12-31T03:15:41;4.90;99.90
42085;DHT22;27746;52.228;20.890;2022-12-31T03:18:10;4.90;99.90
42085;DHT22;27746;52.228;20.890;2022-12-31T03:20:43;4.90;99.90
42085;DHT22;27746;52.228;20.890;2022-12-31T03:23:30;5.00;99.90
42085;DHT22;27746;52.228;20.890;2022-12-31T03:25:58;5.00;99.90
42085;DHT22;27746;52.228;20.890;2022-12-31T03:28:25;5.00;99.90
42085;DHT22;27746;52.228;20.890;2022-12-31T03:30:55;5.00;99.90
42085;DHT22;27746;52.228;20.890;2022-12-31T03:33:23;5.00;99.90
42085;DHT22;27746;52.228;20.890;2022-12-31T03:35:52;5.10;99.90
42085;DHT22;27746;52.228;20.890;2022-12-31T03:38:19;5.10;99.90
42085;DHT22;27746;52.228;20.890;2022-12-31T03:40:48;5.10;99.90
42085;DHT22;27746;52.228;20.890;2022-12-31T03:43:15;5.20;99.90
42085;DHT22;27746;52.228;20.890;2022-12-31T03:45:43;5.20;99.90
42085;DHT22;27746;52.228;20.890;2022-12-31T03:48:11;5.30;99.90
42085;DHT22;27746;52.228;20.890;2022-12-31T03:50:39;5.30;99.90
42085;DHT22;27746;52.228;20.890;2022-12-31T03:53:07;5.40;99.90
42085;DHT22;27746;52.228;20.890;2022-12-31T03:55:34;5.50;99.90
42085;DHT22;27746;52.228;20.890;2022-12-31T03:58:01;5.40;99.90
42085;DHT22;27746;52.228;20.890;2022-12-31T04:00:28;5.50;99.90
42085;DHT22;27746;52.228;20.890;2022-12-31T04:02:55;5.60;99.90
42085;DHT22;27746;52.228;20.890;2022-12-31T04:05:22;5.60;99.90
42085;DHT22;27746;52.228;20.890;2022-12-31T04:07:49;5.60;99.90
42085;DHT22;27746;52.228;20.890;2022-12-31T04:10:18;5.70;99.90
42085;DHT22;27746;52.228;20.890;2022-12-31T04:12:45;5.80;99.90
42085;DHT22;27746;52.228;20.890;2022-12-31T04:15:16;5.80;99.90
42085;DHT22;27746;52.228;20.890;2022-12-31T04:17:44;5.80;99.90
42085;DHT22;27746;52.228;20.890;2022-12-31T04:20:11;5.80;99.90
42085;DHT22;27746;52.228;20.890;2022-12-31T04:22:39;5.90;99.90
42085;DHT22;27746;52.228;20.890;2022-12-31T04:25:07;5.90;99.90
42085;DHT22;27746;52.228;20.890;2022-12-31T04:27:38;5.90;99.90
42085;DHT22;27746;52.228;20.890;2022-12-31T04:30:06;6.00;99.90
42085;DHT22;27746;52.228;20.890;2022-12-31T04:32:34;6.00;99.90
42085;DHT22;27746;52.228;20.890;2022-12-31T04:35:00;6.10;99.90
42085;DHT22;27746;52.228;20.890;2022-12-31T04:37:27;6.20;99.90
42085;DHT22;27746;52.228;20.890;2022-12-31T04:39:54;6.20;99.90
42085;DHT22;27746;52.228;20.890;2022-12-31T04:42:21;6.30;99.90
42085;DHT22;27746;52.228;20.890;2022-12-31T04:44:49;6.30;99.90
42085;DHT22;27746;52.228;20.890;2022-12-31T04:47:16;6.30;99.90
42085;DHT22;27746;52.228;20.890;2022-12-31T04:49:44;6.30;99.90
42085;DHT22;27746;52.228;20.890;2022-12-31T04:52:11;6.40;99.90
42085;DHT22;27746;52.228;20.890;2022-12-31T04:54:38;6.40;99.90
42085;DHT22;27746;52.228;20.890;2022-12-31T04:57:05;6.40;99.90
42085;DHT22;27746;52.228;20.890;2022-12-31T04:59:32;6.40;99.90
42085;DHT22;27746;52.228;20.890;2022-12-31T05:02:00;6.40;99.90
42085;DHT22;27746;52.228;20.890;2022-12-31T05:04:27;6.40;99.90
42085;DHT22;27746;52.228;20.890;2022-12-31T05:06:54;6.50;99.90
42085;DHT22;27746;52.228;20.890;2022-12-31T05:09:21;6.50;99.90
42085;DHT22;27746;52.228;20.890;2022-12-31T05:11:48;6.50;99.90
42085;DHT22;27746;52.228;20.890;2022-12-31T05:14:15;6.60;99.90
42085;DHT22;27746;52.228;20.890;2022-12-31T05:16:42;6.60;99.90
42085;DHT22;27746;52.228;20.890;2022-12-31T05:19:10;6.70;99.90
42085;DHT22;27746;52.228;20.890;2022-12-31T05:21:37;6.70;99.90
42085;DHT22;27746;52.228;20.890;2022-12-31T05:24:05;6.70;99.90
42085;DHT22;27746;52.228;20.890;2022-12-31T05:26:32;6.80;99.90
42085;DHT22;27746;52.228;20.890;2022-12-31T05:28:58;6.80;99.90
42085;DHT22;27746;52.228;20.890;2022-12-31T05:31:26;6.80;99.90
42085;DHT22;27746;52.228;20.890;2022-12-31T05:33:52;6.80;99.90
42085;DHT22;27746;52.228;20.890;2022-12-31T05:36:21;6.90;99.90
42085;DHT22;27746;52.228;20.890;2022-12-31T05:38:48;6.90;99.90
42085;DHT22;27746;52.228;20.890;2022-12-31T05:41:14;6.90;99.90
42085;DHT22;27746;52.228;20.890;2022-12-31T05:43:41;6.90;99.90
42085;DHT22;27746;52.228;20.890;2022-12-31T05:46:08;7.00;99.90
42085;DHT22;27746;52.228;20.890;2022-12-31T05:48:35;7.00;99.90
42085;DHT22;27746;52.228;20.890;2022-12-31T05:51:02;7.00;99.90
42085;DHT22;27746;52.228;20.890;2022-12-31T05:53:30;7.10;99.90
42085;DHT22;27746;52.228;20.890;2022-12-31T05:55:58;7.10;99.90
42085;DHT22;27746;52.228;20.890;2022-12-31T05:58:25;7.20;99.90
42085;DHT22;27746;52.228;20.890;2022-12-31T06:00:52;7.20;99.90
42085;DHT22;27746;52.228;20.890;2022-12-31T06:03:19;7.30;99.90
42085;DHT22;27746;52.228;20.890;2022-12-31T06:05:46;7.30;99.90
42085;DHT22;27746;52.228;20.890;2022-12-31T06:08:13;7.30;99.90
42085;DHT22;27746;52.228;20.890;2022-12-31T06:10:41;7.30;99.90
42085;DHT22;27746;52.228;20.890;2022-12-31T06:13:08;7.40;99.90
42085;DHT22;27746;52.228;20.890;2022-12-31T06:15:37;7.40;99.90
42085;DHT22;27746;52.228;20.890;2022-12-31T06:18:04;7.40;99.90
42085;DHT22;27746;52.228;20.890;2022-12-31T06:20:31;7.40;99.90
42085;DHT22;27746;52.228;20.890;2022-12-31T06:22:58;7.50;99.90
42085;DHT22;27746;52.228;20.890;2022-12-31T06:25:25;7.50;99.90
42085;DHT22;27746;52.228;20.890;2022-12-31T06:27:53;7.50;99.90
42085;DHT22;27746;52.228;20.890;2022-12-31T06:30:20;7.50;99.90
42085;DHT22;27746;52.228;20.890;2022-12-31T06:32:47;7.50;99.90
42085;DHT22;27746;52.228;20.890;2022-12-31T06:35:14;7.50;99.90
42085;DHT22;27746;52.228;20.890;2022-12-31T06:37:41;7.50;99.90
42085;DHT22;27746;52.228;20.890;2022-12-31T06:40:09;7.50;99.90
42085;DHT22;27746;52.228;20.890;2022-12-31T06:42:36;7.50;99.90
42085;DHT22;27746;52.228;20.890;2022-12-31T06:45:06;7.50;99.90
42085;DHT22;27746;52.228;20.890;2022-12-31T06:47:33;7.60;99.90
42085;DHT22;27746;52.228;20.890;2022-12-31T06:50:00;7.60;99.90
42085;DHT22;27746;52.228;20.890;2022-12-31T06:52:27;7.60;99.90
42085;DHT22;27746;52.228;20.890;2022-12-31T06:54:54;7.60;99.90
42085;DHT22;27746;52.228;20.890;2022-12-31T06:57:21;7.60;99.90
42085;DHT22;27746;52.228;20.890;2022-12-31T06:59:49;7.60;99.90
42085;DHT22;27746;52.228;20.890;2022-12-31T07:02:28;7.70;99.90
42085;DHT22;27746;52.228;20.890;2022-12-31T07:05:07;7.70;99.90
42085;DHT22;27746;52.228;20.890;2022-12-31T07:07:47;7.80;99.90
42085;DHT22;27746;52.228;20.890;2022-12-31T07:10:21;7.80;99.90
42085;DHT22;27746;52.228;20.890;2022-12-31T07:13:23;7.80;99.90
42085;DHT22;27746;52.228;20.890;2022-12-31T07:16:05;7.80;99.90
42085;DHT22;27746;52.228;20.890;2022-12-31T07:18:38;7.90;99.90
42085;DHT22;27746;52.228;20.890;2022-12-31T07:21:10;7.90;99.90
42085;DHT22;27746;52.228;20.890;2022-12-31T07:23:39;7.90;99.90
42085;DHT22;27746;52.228;20.890;2022-12-31T07:26:16;8.00;99.90
42085;DHT22;27746;52.228;20.890;2022-12-31T07:28:52;8.00;99.90
42085;DHT22;27746;52.228;20.890;2022-12-31T07:31:31;8.00;99.90
42085;DHT22;27746;52.228;20.890;2022-12-31T07:34:10;8.10;99.90
42085;DHT22;27746;52.228;20.890;2022-12-31T07:36:50;8.10;99.90
42085;DHT22;27746;52.228;20.890;2022-12-31T07:39:27;8.20;99.90
42085;DHT22;27746;52.228;20.890;2022-12-31T07:42:00;8.20;99.90
42085;DHT22;27746;52.228;20.890;2022-12-31T07:44:36;8.20;99.90
42085;DHT22;27746;52.228;20.890;2022-12-31T07:47:13;8.30;99.90
42085;DHT22;27746;52.228;20.890;2022-12-31T07:49:47;8.30;99.90
42085;DHT22;27746;52.228;20.890;2022-12-31T07:52:15;8.30;99.90
42085;DHT22;27746;52.228;20.890;2022-12-31T07:54:41;8.40;99.90
42085;DHT22;27746;52.228;20.890;2022-12-31T07:57:10;8.40;99.90
42085;DHT22;27746;52.228;20.890;2022-12-31T07:59:51;8.50;99.90
42085;DHT22;27746;52.228;20.890;2022-12-31T08:02:31;8.50;99.90
42085;DHT22;27746;52.228;20.890;2022-12-31T08:05:10;8.50;99.90
42085;DHT22;27746;52.228;20.890;2022-12-31T08:07:44;8.60;99.90
42085;DHT22;27746;52.228;20.890;2022-12-31T08:10:14;8.60;99.90
42085;DHT22;27746;52.228;20.890;2022-12-31T08:12:46;8.70;99.90
42085;DHT22;27746;52.228;20.890;2022-12-31T08:15:16;8.70;99.90
42085;DHT22;27746;52.228;20.890;2022-12-31T08:17:43;8.70;99.90
42085;DHT22;27746;52.228;20.890;2022-12-31T08:20:14;8.70;99.90
42085;DHT22;27746;52.228;20.890;2022-12-31T08:25:39;8.80;99.90
42085;DHT22;27746;52.228;20.890;2022-12-31T08:28:16;8.80;99.90
42085;DHT22;27746;52.228;20.890;2022-12-31T08:30:53;8.80;99.90
42085;DHT22;27746;52.228;20.890;2022-12-31T08:33:28;8.90;99.90
42085;DHT22;27746;52.228;20.890;2022-12-31T08:36:10;8.90;99.90
42085;DHT22;27746;52.228;20.890;2022-12-31T08:38:44;9.00;99.90
42085;DHT22;27746;52.228;20.890;2022-12-31T08:41:17;9.00;99.90
42085;DHT22;27746;52.228;20.890;2022-12-31T08:43:52;9.00;99.90
42085;DHT22;27746;52.228;20.890;2022-12-31T08:46:26;9.00;99.90
42085;DHT22;27746;52.228;20.890;2022-12-31T08:48:55;9.10;99.90
42085;DHT22;27746;52.228;20.890;2022-12-31T08:51:25;9.20;99.90
42085;DHT22;27746;52.228;20.890;2022-12-31T08:53:52;9.20;99.90
42085;DHT22;27746;52.228;20.890;2022-12-31T08:56:29;9.30;99.90
42085;DHT22;27746;52.228;20.890;2022-12-31T08:59:11;9.30;99.90
42085;DHT22;27746;52.228;20.890;2022-12-31T09:01:54;9.40;99.90
42085;DHT22;27746;52.228;20.890;2022-12-31T09:04:27;9.40;99.90
42085;DHT22;27746;52.228;20.890;2022-12-31T09:06:59;9.50;99.90
42085;DHT22;27746;52.228;20.890;2022-12-31T09:09:35;9.50;99.90
42085;DHT22;27746;52.228;20.890;2022-12-31T09:12:11;9.60;99.90
42085;DHT22;27746;52.228;20.890;2022-12-31T09:14:42;9.60;99.90
42085;DHT22;27746;52.228;20.890;2022-12-31T09:17:35;9.70;99.90
42085;DHT22;27746;52.228;20.890;2022-12-31T09:20:11;9.80;99.90
42085;DHT22;27746;52.228;20.890;2022-12-31T09:22:41;9.70;99.90
42085;DHT22;27746;52.228;20.890;2022-12-31T09:25:12;9.80;99.90
42085;DHT22;27746;52.228;20.890;2022-12-31T09:27:44;9.80;99.90
42085;DHT22;27746;52.228;20.890;2022-12-31T09:30:13;9.90;99.90
42085;DHT22;27746;52.228;20.890;2022-12-31T09:32:45;10.00;99.90
42085;DHT22;27746;52.228;20.890;2022-12-31T09:35:21;10.00;99.90
42085;DHT22;27746;52.228;20.890;2022-12-31T09:37:55;10.10;99.90
42085;DHT22;27746;52.228;20.890;2022-12-31T09:40:50;10.30;99.90
42085;DHT22;27746;52.228;20.890;2022-12-31T09:49:57;10.90;99.90
42085;DHT22;27746;52.228;20.890;2022-12-31T09:52:36;10.90;99.90
42085;DHT22;27746;52.228;20.890;2022-12-31T09:55:26;10.80;99.90
42085;DHT22;27746;52.228;20.890;2022-12-31T09:58:05;10.90;99.90
42085;DHT22;27746;52.228;20.890;2022-12-31T10:00:38;11.40;99.90
42085;DHT22;27746;52.228;20.890;2022-12-31T10:03:28;12.10;99.90
42085;DHT22;27746;52.228;20.890;2022-12-31T10:06:17;12.90;99.90
42085;DHT22;27746;52.228;20.890;2022-12-31T10:09:16;12.80;99.90
42085;DHT22;27746;52.228;20.890;2022-12-31T10:12:17;12.80;99.90
42085;DHT22;27746;52.228;20.890;2022-12-31T10:15:01;12.90;99.90
42085;DHT22;27746;52.228;20.890;2022-12-31T10:17:45;14.70;99.40
42085;DHT22;27746;52.228;20.890;2022-12-31T10:20:26;15.70;96.50
42085;DHT22;27746;52.228;20.890;2022-12-31T10:23:19;16.60;93.80
42085;DHT22;27746;52.228;20.890;2022-12-31T10:26:09;16.80;92.10
42085;DHT22;27746;52.228;20.890;2022-12-31T10:28:48;17.20;91.20
42085;DHT22;27746;52.228;20.890;2022-12-31T10:31:31;16.40;91.10
42085;DHT22;27746;52.228;20.890;2022-12-31T10:34:11;15.50;92.20
42085;DHT22;27746;52.228;20.890;2022-12-31T10:36:50;14.40;93.90
42085;DHT22;27746;52.228;20.890;2022-12-31T10:39:26;13.60;95.30
42085;DHT22;27746;52.228;20.890;2022-12-31T10:42:45;13.10;96.70
42085;DHT22;27746;52.228;20.890;2022-12-31T10:45:32;12.70;97.80
42085;DHT22;27746;52.228;20.890;2022-12-31T10:48:33;12.30;98.50
42085;DHT22;27746;52.228;20.890;2022-12-31T10:51:35;12.10;99.30
42085;DHT22;27746;52.228;20.890;2022-12-31T10:57:36;11.90;99.90
42085;DHT22;27746;52.228;20.890;2022-12-31T11:00:14;12.00;99.90
42085;DHT22;27746;52.228;20.890;2022-12-31T11:03:05;12.00;99.90
42085;DHT22;27746;52.228;20.890;2022-12-31T11:11:57;12.40;99.90
42085;DHT22;27746;52.228;20.890;2022-12-31T11:17:42;13.00;99.20
42085;DHT22;27746;52.228;20.890;2022-12-31T11:23:30;13.00;98.80
42085;DHT22;27746;52.228;20.890;2022-12-31T11:26:08;12.70;99.40
42085;DHT22;27746;52.228;20.890;2022-12-31T11:29:03;12.40;99.90
42085;DHT22;27746;52.228;20.890;2022-12-31T11:31:46;12.20;99.90
42085;DHT22;27746;52.228;20.890;2022-12-31T11:34:37;12.00;99.90
42085;DHT22;27746;52.228;20.890;2022-12-31T11:37:22;12.00;99.90
42085;DHT22;27746;52.228;20.890;2022-12-31T11:40:11;12.00;99.90
42085;DHT22;27746;52.228;20.890;2022-12-31T11:42:54;12.20;99.90
42085;DHT22;27746;52.228;20.890;2022-12-31T11:45:50;12.90;99.90
42085;DHT22;27746;52.228;20.890;2022-12-31T11:48:31;13.50;99.80
42085;DHT22;27746;52.228;20.890;2022-12-31T11:51:13;13.70;99.10
42085;DHT22;27746;52.228;20.890;2022-12-31T11:54:13;13.40;98.90
42085;DHT22;27746;52.228;20.890;2022-12-31T11:56:49;13.00;99.50
42085;DHT22;27746;52.228;20.890;2022-12-31T11:59:16;12.70;99.90
42085;DHT22;27746;52.228;20.890;2022-12-31T12:01:49;12.50;99.90
42085;DHT22;27746;52.228;20.890;2022-12-31T12:04:17;12.40;99.90
42085;DHT22;27746;52.228;20.890;2022-12-31T12:06:44;12.40;99.90
42085;DHT22;27746;52.228;20.890;2022-12-31T12:09:14;12.40;99.90
42085;DHT22;27746;52.228;20.890;2022-12-31T12:11:42;12.40;99.90
42085;DHT22;27746;52.228;20.890;2022-12-31T12:14:20;12.40;99.90
42085;DHT22;27746;52.228;20.890;2022-12-31T12:16:52;12.70;99.90
42085;DHT22;27746;52.228;20.890;2022-12-31T12:19:26;13.00;99.90
42085;DHT22;27746;52.228;20.890;2022-12-31T12:21:57;13.00;99.90
42085;DHT22;27746;52.228;20.890;2022-12-31T12:24:26;12.80;99.90
42085;DHT22;27746;52.228;20.890;2022-12-31T12:26:53;12.70;99.90
42085;DHT22;27746;52.228;20.890;2022-12-31T12:29:27;12.50;99.90
42085;DHT22;27746;52.228;20.890;2022-12-31T12:31:55;12.40;99.90
42085;DHT22;27746;52.228;20.890;2022-12-31T12:34:24;12.20;99.90
42085;DHT22;27746;52.228;20.890;2022-12-31T12:36:51;12.10;99.90
42085;DHT22;27746;52.228;20.890;2022-12-31T12:39:21;12.00;99.90
42085;DHT22;27746;52.228;20.890;2022-12-31T12:41:59;11.90;99.90
42085;DHT22;27746;52.228;20.890;2022-12-31T12:44:30;11.90;99.90
42085;DHT22;27746;52.228;20.890;2022-12-31T12:46:57;11.90;99.90
42085;DHT22;27746;52.228;20.890;2022-12-31T12:49:28;11.90;99.90
42085;DHT22;27746;52.228;20.890;2022-12-31T12:52:05;11.80;99.90
42085;DHT22;27746;52.228;20.890;2022-12-31T12:54:45;11.80;99.90
42085;DHT22;27746;52.228;20.890;2022-12-31T12:57:20;11.80;99.90
42085;DHT22;27746;52.228;20.890;2022-12-31T13:00:04;11.80;99.90
42085;DHT22;27746;52.228;20.890;2022-12-31T13:05:47;11.80;99.90
42085;DHT22;27746;52.228;20.890;2022-12-31T13:08:31;11.80;99.90
42085;DHT22;27746;52.228;20.890;2022-12-31T13:11:16;11.90;99.90
42085;DHT22;27746;52.228;20.890;2022-12-31T13:13:55;11.90;99.90
42085;DHT22;27746;52.228;20.890;2022-12-31T13:16:33;11.90;99.90
42085;DHT22;27746;52.228;20.890;2022-12-31T13:19:06;11.90;99.90
42085;DHT22;27746;52.228;20.890;2022-12-31T13:21:43;11.90;99.90
42085;DHT22;27746;52.228;20.890;2022-12-31T13:24:20;11.90;99.90
42085;DHT22;27746;52.228;20.890;2022-12-31T13:26:55;11.90;99.90
42085;DHT22;27746;52.228;20.890;2022-12-31T13:29:30;11.90;99.90
42085;DHT22;27746;52.228;20.890;2022-12-31T13:32:11;11.90;99.90
42085;DHT22;27746;52.228;20.890;2022-12-31T13:34:48;11.90;99.90
42085;DHT22;27746;52.228;20.890;2022-12-31T13:37:23;12.00;99.90
42085;DHT22;27746;52.228;20.890;2022-12-31T13:39:58;11.90;99.90
42085;DHT22;27746;52.228;20.890;2022-12-31T13:42:34;11.90;99.90
42085;DHT22;27746;52.228;20.890;2022-12-31T13:45:09;12.00;99.90
42085;DHT22;27746;52.228;20.890;2022-12-31T13:47:54;12.00;99.90
42085;DHT22;27746;52.228;20.890;2022-12-31T13:50:32;12.00;99.90
42085;DHT22;27746;52.228;20.890;2022-12-31T13:53:06;12.00;99.90
42085;DHT22;27746;52.228;20.890;2022-12-31T13:55:39;12.00;99.90
42085;DHT22;27746;52.228;20.890;2022-12-31T13:58:13;12.00;99.90
42085;DHT22;27746;52.228;20.890;2022-12-31T14:00:45;12.10;99.90
42085;DHT22;27746;52.228;20.890;2022-12-31T14:03:20;12.10;99.90
42085;DHT22;27746;52.228;20.890;2022-12-31T14:05:54;12.10;99.90
42085;DHT22;27746;52.228;20.890;2022-12-31T14:08:22;12.10;99.90
42085;DHT22;27746;52.228;20.890;2022-12-31T14:10:57;12.20;99.90
42085;DHT22;27746;52.228;20.890;2022-12-31T14:13:45;12.20;99.90
42085;DHT22;27746;52.228;20.890;2022-12-31T14:16:20;12.20;99.90
42085;DHT22;27746;52.228;20.890;2022-12-31T14:18:58;12.20;99.90
42085;DHT22;27746;52.228;20.890;2022-12-31T14:21:31;12.30;99.90
42085;DHT22;27746;52.228;20.890;2022-12-31T14:24:05;12.30;99.90
42085;DHT22;27746;52.228;20.890;2022-12-31T14:26:36;12.30;99.90
42085;DHT22;27746;52.228;20.890;2022-12-31T16:31:57;13.30;99.90
42085;DHT22;27746;52.228;20.890;2022-12-31T16:34:25;13.40;99.90
42085;DHT22;27746;52.228;20.890;2022-12-31T16:36:58;13.40;99.90
42085;DHT22;27746;52.228;20.890;2022-12-31T16:39:27;13.40;99.90
42085;DHT22;27746;52.228;20.890;2022-12-31T16:42:16;13.30;99.90
42085;DHT22;27746;52.228;20.890;2022-12-31T16:44:45;13.30;99.90
42085;DHT22;27746;52.228;20.890;2022-12-31T16:47:18;13.30;99.90
42085;DHT22;27746;52.228;20.890;2022-12-31T16:49:47;13.30;99.90
42085;DHT22;27746;52.228;20.890;2022-12-31T16:52:25;13.20;99.90
42085;DHT22;27746;52.228;20.890;2022-12-31T16:54:54;13.20;99.90
42085;DHT22;27746;52.228;20.890;2022-12-31T16:57:23;13.20;99.90
42085;DHT22;27746;52.228;20.890;2022-12-31T16:59:53;13.20;99.90
42085;DHT22;27746;52.228;20.890;2022-12-31T17:02:26;13.20;99.90
42085;DHT22;27746;52.228;20.890;2022-12-31T17:04:55;13.20;99.90
42085;DHT22;27746;52.228;20.890;2022-12-31T17:07:35;13.20;99.90
42085;DHT22;27746;52.228;20.890;2022-12-31T17:10:12;13.20;99.90
42085;DHT22;27746;52.228;20.890;2022-12-31T17:12:42;13.30;99.90
42085;DHT22;27746;52.228;20.890;2022-12-31T17:15:17;13.30;99.90
42085;DHT22;27746;52.228;20.890;2022-12-31T17:17:49;13.30;99.90
42085;DHT22;27746;52.228;20.890;2022-12-31T17:20:22;13.40;99.90
42085;DHT22;27746;52.228;20.890;2022-12-31T17:22:52;13.40;99.90
42085;DHT22;27746;52.228;20.890;2022-12-31T17:25:22;13.40;99.90
42085;DHT22;27746;52.228;20.890;2022-12-31T17:27:55;13.40;99.90
42085;DHT22;27746;52.228;20.890;2022-12-31T17:30:36;13.40;99.90
42085;DHT22;27746;52.228;20.890;2022-12-31T17:33:29;13.40;99.90
42085;DHT22;27746;52.228;20.890;2022-12-31T17:36:12;13.40;99.90
42085;DHT22;27746;52.228;20.890;2022-12-31T17:38:40;13.40;99.90
42085;DHT22;27746;52.228;20.890;2022-12-31T17:41:15;13.40;99.90
42085;DHT22;27746;52.228;20.890;2022-12-31T17:43:42;13.40;99.90
42085;DHT22;27746;52.228;20.890;2022-12-31T17:46:11;13.40;99.90
42085;DHT22;27746;52.228;20.890;2022-12-31T17:48:41;13.40;99.90
42085;DHT22;27746;52.228;20.890;2022-12-31T17:51:09;13.40;99.90
42085;DHT22;27746;52.228;20.890;2022-12-31T17:53:36;13.40;99.90
42085;DHT22;27746;52.228;20.890;2022-12-31T17:56:05;13.50;99.90
42085;DHT22;27746;52.228;20.890;2022-12-31T17:58:43;13.40;99.90
42085;DHT22;27746;52.228;20.890;2022-12-31T18:01:13;13.40;99.90
42085;DHT22;27746;52.228;20.890;2022-12-31T18:03:42;13.40;99.90
42085;DHT22;27746;52.228;20.890;2022-12-31T18:06:10;13.40;99.90
42085;DHT22;27746;52.228;20.890;2022-12-31T18:08:37;13.40;99.90
42085;DHT22;27746;52.228;20.890;2022-12-31T18:11:04;13.50;99.90
42085;DHT22;27746;52.228;20.890;2022-12-31T18:13:31;13.50;99.90
42085;DHT22;27746;52.228;20.890;2022-12-31T18:15:58;13.50;99.90
42085;DHT22;27746;52.228;20.890;2022-12-31T18:18:26;13.50;99.90
42085;DHT22;27746;52.228;20.890;2022-12-31T18:20:56;13.60;99.90
42085;DHT22;27746;52.228;20.890;2022-12-31T18:23:26;13.60;99.90
42085;DHT22;27746;52.228;20.890;2022-12-31T18:25:53;13.70;99.90
42085;DHT22;27746;52.228;20.890;2022-12-31T18:28:21;13.70;99.90
42085;DHT22;27746;52.228;20.890;2022-12-31T18:30:48;13.80;99.90
42085;DHT22;27746;52.228;20.890;2022-12-31T18:33:15;13.80;99.90
42085;DHT22;27746;52.228;20.890;2022-12-31T18:35:47;13.90;99.90
42085;DHT22;27746;52.228;20.890;2022-12-31T18:38:17;13.90;99.90